createdAt,value
2023-02-27T00:02:22.243Z,93.38
2023-02-27T00:04:50.741Z,93.58
2023-02-27T00:07:18.928Z,93.62
2023-02-27T00:09:47.196Z,94.00
2023-02-27T00:12:15.431Z,94.19
2023-02-27T00:14:43.612Z,94.26
2023-02-27T00:17:11.778Z,94.00
2023-02-27T00:19:40.228Z,94.26
2023-02-27T00:22:08.577Z,94.34
2023-02-27T00:24:36.783Z,94.14
2023-02-27T00:27:05.099Z,93.70
2023-02-27T00:29:33.325Z,93.73
2023-02-27T00:32:01.676Z,93.58
2023-02-27T00:34:29.937Z,93.68
2023-02-27T00:36:58.225Z,94.06
2023-02-27T00:39:26.475Z,93.60
2023-02-27T00:41:54.649Z,93.51
2023-02-27T00:44:22.890Z,93.59
2023-02-27T00:46:51.084Z,93.89
2023-02-27T00:49:19.969Z,93.74
2023-02-27T00:51:48.189Z,94.10
2023-02-27T00:54:16.483Z,94.33
2023-02-27T00:56:44.695Z,94.71
2023-02-27T00:59:13.105Z,94.81
2023-02-27T01:01:41.392Z,94.85
2023-02-27T01:04:09.655Z,94.52
2023-02-27T01:06:37.947Z,94.14
2023-02-27T01:09:06.132Z,94.54
2023-02-27T01:11:34.409Z,94.30
2023-02-27T01:14:02.660Z,94.38
2023-02-27T01:16:31.452Z,94.81
2023-02-27T01:18:59.821Z,94.48
2023-02-27T01:21:28.218Z,94.58
2023-02-27T01:23:56.636Z,94.64
2023-02-27T01:26:25.272Z,94.19
2023-02-27T01:28:54.932Z,93.85
2023-02-27T01:31:23.273Z,93.92
2023-02-27T01:33:51.598Z,94.18
2023-02-27T01:36:20.605Z,94.42
2023-02-27T01:38:49.722Z,94.61
2023-02-27T01:41:18.061Z,94.58
2023-02-27T01:44:02.912Z,94.21
2023-02-27T01:46:32.912Z,94.08
2023-02-27T01:49:24.291Z,94.57
2023-02-27T01:52:02.073Z,94.19
2023-02-27T01:54:32.407Z,94.61
2023-02-27T01:57:07.044Z,94.41
2023-02-27T01:59:37.664Z,94.30
2023-02-27T02:02:12.883Z,94.13
2023-02-27T02:04:42.078Z,94.23
2023-02-27T02:07:14.977Z,94.14
2023-02-27T02:09:51.970Z,94.13
2023-02-27T02:12:25.814Z,93.91
2023-02-27T02:14:54.002Z,94.33
2023-02-27T02:17:40.902Z,94.46
2023-02-27T02:20:31.000Z,94.22
2023-02-27T02:23:31.537Z,94.18
2023-02-27T02:26:24.793Z,93.83
2023-02-27T02:28:58.988Z,93.79
2023-02-27T02:31:49.404Z,94.04
2023-02-27T02:34:45.890Z,93.99
2023-02-27T02:37:43.444Z,94.15
2023-02-27T02:40:11.618Z,93.81
2023-02-27T02:42:53.393Z,94.15
2023-02-27T02:45:34.109Z,93.68
2023-02-27T02:48:11.229Z,94.00
2023-02-27T02:50:48.553Z,94.27
2023-02-27T02:53:42.755Z,94.67
2023-02-27T02:56:23.305Z,94.74
2023-02-27T02:59:12.994Z,93.90
2023-02-27T03:01:57.798Z,93.99
2023-02-27T03:04:29.543Z,93.64
2023-02-27T03:07:08.877Z,94.22
2023-02-27T03:10:08.524Z,94.24
2023-02-27T03:12:41.799Z,93.97
2023-02-27T03:15:25.759Z,94.15
2023-02-27T03:18:22.037Z,94.01
2023-02-27T03:20:58.923Z,94.05
2023-02-27T03:23:40.699Z,93.91
2023-02-27T03:26:12.558Z,93.81
2023-02-27T03:28:50.082Z,93.32
2023-02-27T03:31:52.001Z,93.36
2023-02-27T03:34:40.273Z,93.79
2023-02-27T03:37:34.427Z,93.54
2023-02-27T03:40:12.002Z,93.70
2023-02-27T03:42:46.372Z,93.78
2023-02-27T03:45:47.296Z,93.85
2023-02-27T03:48:15.679Z,93.59
2023-02-27T03:50:44.035Z,93.69
2023-02-27T03:53:21.817Z,93.44
2023-02-27T03:55:52.493Z,93.31
2023-02-27T03:58:21.256Z,93.20
2023-02-27T04:00:49.837Z,93.62
2023-02-27T04:03:18.537Z,93.78
2023-02-27T04:05:47.199Z,93.68
2023-02-27T04:08:21.770Z,93.65
2023-02-27T04:11:23.840Z,93.53
2023-02-27T04:13:54.979Z,94.04
2023-02-27T04:16:49.026Z,94.11
2023-02-27T04:19:17.150Z,94.37
2023-02-27T04:21:54.420Z,94.49
2023-02-27T04:24:46.215Z,94.69
2023-02-27T04:27:26.094Z,94.79
2023-02-27T04:30:09.594Z,95.02
2023-02-27T04:32:43.642Z,95.03
2023-02-27T04:35:29.380Z,94.70
2023-02-27T04:38:39.172Z,94.15
2023-02-27T04:41:16.078Z,94.18
2023-02-27T04:43:45.726Z,94.24
2023-02-27T04:46:17.198Z,94.07
2023-02-27T04:48:58.472Z,93.88
2023-02-27T04:51:33.330Z,93.83
2023-02-27T04:54:09.101Z,93.71
2023-02-27T04:56:52.817Z,93.79
2023-02-27T04:59:28.452Z,93.44
2023-02-27T05:02:02.195Z,93.40
2023-02-27T05:04:36.019Z,93.23
2023-02-27T05:07:09.536Z,93.22
2023-02-27T05:09:58.783Z,92.95
2023-02-27T05:12:41.576Z,92.85
2023-02-27T05:15:58.642Z,93.24
2023-02-27T05:18:27.401Z,94.10
2023-02-27T05:20:58.584Z,93.73
2023-02-27T05:23:49.797Z,93.51
2023-02-27T05:26:36.093Z,93.05
2023-02-27T05:29:26.816Z,92.45
2023-02-27T05:32:04.403Z,91.67
2023-02-27T05:34:42.926Z,91.35
2023-02-27T05:37:23.284Z,92.01
2023-02-27T05:39:53.354Z,92.21
2023-02-27T05:42:31.202Z,92.32
2023-02-27T05:45:06.506Z,92.43
2023-02-27T05:47:40.095Z,92.24
2023-02-27T05:50:23.392Z,92.20
2023-02-27T05:52:54.625Z,92.02
2023-02-27T05:55:26.707Z,92.06
2023-02-27T05:58:05.859Z,91.79
2023-02-27T06:00:48.438Z,91.61
2023-02-27T06:03:16.844Z,91.97
2023-02-27T06:05:46.225Z,92.05
2023-02-27T06:08:14.408Z,91.77
2023-02-27T06:10:42.646Z,92.17
2023-02-27T06:13:10.835Z,91.91
2023-02-27T06:15:39.098Z,91.97
2023-02-27T06:18:07.391Z,91.70
2023-02-27T06:20:35.680Z,91.85
2023-02-27T06:23:03.947Z,92.01
2023-02-27T06:25:32.503Z,92.39
2023-02-27T06:28:00.846Z,92.36
2023-02-27T06:30:29.390Z,92.17
2023-02-27T06:32:57.922Z,92.14
2023-02-27T06:35:26.158Z,91.93
2023-02-27T06:37:54.249Z,92.31
2023-02-27T06:40:22.885Z,92.10
2023-02-27T06:42:51.163Z,92.16
2023-02-27T06:45:19.721Z,92.22
2023-02-27T06:47:47.921Z,92.32
2023-02-27T06:50:16.221Z,92.41
2023-02-27T06:52:44.440Z,92.32
2023-02-27T06:55:13.257Z,92.15
2023-02-27T06:57:41.367Z,92.53
2023-02-27T07:00:11.963Z,91.93
2023-02-27T07:02:40.992Z,91.94
2023-02-27T07:05:09.679Z,91.59
2023-02-27T07:07:38.981Z,91.35
2023-02-27T07:10:11.907Z,91.59
2023-02-27T07:12:41.363Z,92.01
2023-02-27T07:15:10.214Z,91.97
2023-02-27T07:17:38.471Z,91.76
2023-02-27T07:20:10.693Z,91.73
2023-02-27T07:22:40.820Z,91.60
2023-02-27T07:25:10.135Z,91.65
2023-02-27T07:27:38.653Z,91.32
2023-02-27T07:30:08.279Z,91.26
2023-02-27T07:32:36.494Z,90.92
2023-02-27T07:35:04.988Z,91.37
2023-02-27T07:37:33.373Z,91.72
2023-02-27T07:40:01.567Z,91.93
2023-02-27T07:42:30.224Z,91.68
2023-02-27T07:44:58.394Z,91.49
2023-02-27T07:47:27.343Z,90.94
2023-02-27T07:49:55.484Z,91.18
2023-02-27T07:52:24.203Z,90.52
2023-02-27T07:54:52.647Z,90.88
2023-02-27T07:57:20.830Z,91.19
2023-02-27T07:59:49.038Z,91.16
2023-02-27T08:02:17.231Z,91.34
2023-02-27T08:04:45.500Z,91.15
2023-02-27T08:07:13.976Z,90.69
2023-02-27T08:09:42.149Z,89.69
2023-02-27T08:12:10.486Z,89.41
2023-02-27T08:14:39.003Z,89.46
2023-02-27T08:17:07.512Z,89.85
2023-02-27T08:19:35.680Z,90.64
2023-02-27T08:22:03.856Z,89.87
2023-02-27T08:24:32.032Z,90.03
2023-02-27T08:27:00.302Z,89.38
2023-02-27T08:29:28.650Z,89.50
2023-02-27T08:31:56.973Z,89.58
2023-02-27T08:34:28.573Z,89.95
2023-02-27T08:36:56.908Z,89.24
2023-02-27T08:39:25.321Z,89.37
2023-02-27T08:41:53.954Z,89.64
2023-02-27T08:44:22.212Z,90.03
2023-02-27T08:46:50.493Z,89.81
2023-02-27T08:49:21.545Z,89.66
2023-02-27T08:51:50.039Z,88.87
2023-02-27T08:54:19.122Z,88.70
2023-02-27T08:56:48.080Z,88.58
2023-02-27T08:59:16.505Z,87.46
2023-02-27T09:01:44.852Z,86.57
2023-02-27T09:04:13.108Z,87.83
2023-02-27T09:06:41.280Z,87.56
2023-02-27T09:09:09.630Z,88.01
2023-02-27T09:11:38.895Z,88.16
2023-02-27T09:14:08.785Z,88.31
2023-02-27T09:16:37.114Z,88.05
2023-02-27T09:19:05.903Z,87.98
2023-02-27T09:21:34.146Z,87.58
2023-02-27T09:24:17.161Z,86.85
2023-02-27T09:26:48.029Z,87.17
2023-02-27T09:29:16.604Z,86.76
2023-02-27T09:31:45.198Z,86.05
2023-02-27T09:34:13.538Z,85.91
2023-02-27T09:36:41.826Z,86.14
2023-02-27T09:39:10.320Z,85.64
2023-02-27T09:41:51.688Z,84.94
2023-02-27T09:44:46.155Z,85.28
2023-02-27T09:47:28.194Z,85.40
2023-02-27T09:50:03.784Z,84.70
2023-02-27T09:52:35.834Z,83.77
2023-02-27T09:55:21.770Z,82.98
2023-02-27T09:58:06.906Z,82.85
2023-02-27T10:00:38.404Z,81.44
2023-02-27T10:03:28.508Z,81.06
2023-02-27T10:06:18.500Z,80.48
2023-02-27T10:08:53.422Z,78.75
2023-02-27T10:11:32.796Z,80.19
2023-02-27T10:14:29.667Z,80.30
2023-02-27T10:16:59.376Z,78.44
2023-02-27T10:19:32.215Z,74.72
2023-02-27T10:22:02.417Z,77.87
2023-02-27T10:24:37.242Z,77.80
2023-02-27T10:27:13.941Z,74.72
2023-02-27T10:29:42.451Z,77.03
2023-02-27T10:32:27.930Z,77.42
2023-02-27T10:35:34.472Z,75.05
2023-02-27T10:38:08.258Z,75.35
2023-02-27T10:40:39.163Z,75.86
2023-02-27T10:43:07.496Z,74.59
2023-02-27T10:45:37.437Z,73.97
2023-02-27T10:48:06.903Z,73.32
2023-02-27T10:50:40.077Z,72.63
2023-02-27T10:53:23.517Z,73.42
2023-02-27T10:56:02.448Z,71.91
2023-02-27T10:58:35.000Z,72.00
2023-02-27T11:01:09.137Z,69.78
2023-02-27T11:03:41.558Z,71.04
2023-02-27T11:06:21.421Z,68.55
2023-02-27T11:09:11.348Z,69.64
2023-02-27T11:11:39.685Z,71.20
2023-02-27T11:14:25.205Z,72.59
2023-02-27T11:16:55.956Z,73.92
2023-02-27T11:19:39.107Z,74.87
2023-02-27T11:22:13.873Z,75.96
2023-02-27T11:24:42.525Z,75.10
2023-02-27T11:27:31.065Z,75.26
2023-02-27T11:30:19.929Z,73.80
2023-02-27T11:32:50.077Z,73.65
2023-02-27T11:35:39.735Z,73.15
2023-02-27T11:38:18.865Z,72.89
2023-02-27T11:41:08.464Z,73.65
2023-02-27T11:43:57.655Z,73.82
2023-02-27T11:46:44.293Z,72.31
2023-02-27T11:49:35.348Z,73.93
2023-02-27T11:52:24.026Z,74.95
2023-02-27T11:54:59.747Z,74.63
2023-02-27T11:57:32.827Z,73.75
2023-02-27T12:00:16.135Z,74.71
2023-02-27T12:02:53.373Z,74.96
2023-02-27T12:05:32.277Z,76.43
2023-02-27T12:08:14.892Z,75.85
2023-02-27T12:10:52.904Z,76.40
2023-02-27T12:13:27.490Z,76.05
2023-02-27T12:16:13.716Z,76.19
2023-02-27T12:18:55.231Z,76.38
2023-02-27T12:21:40.505Z,76.88
2023-02-27T12:24:15.081Z,76.84
2023-02-27T12:26:46.806Z,76.59
2023-02-27T12:29:28.735Z,76.89
2023-02-27T12:32:23.882Z,77.53
2023-02-27T12:35:05.529Z,77.57
2023-02-27T12:37:33.822Z,78.31
2023-02-27T12:40:08.020Z,78.59
2023-02-27T12:42:57.431Z,78.35
2023-02-27T12:45:35.241Z,77.47
2023-02-27T12:48:22.691Z,77.30
2023-02-27T12:51:32.259Z,77.03
2023-02-27T12:54:22.420Z,77.72
2023-02-27T12:57:02.935Z,78.08
2023-02-27T12:59:58.004Z,79.04
2023-02-27T13:02:46.216Z,79.06
2023-02-27T13:05:18.240Z,79.31
2023-02-27T13:08:21.280Z,79.56
2023-02-27T13:10:54.169Z,79.97
2023-02-27T13:13:25.073Z,79.03
2023-02-27T13:16:05.636Z,78.83
2023-02-27T13:18:55.848Z,78.93
2023-02-27T13:21:23.990Z,78.78
2023-02-27T13:24:11.099Z,78.79
2023-02-27T13:26:57.912Z,79.03
2023-02-27T13:29:35.062Z,78.93
2023-02-27T13:32:44.336Z,78.82
2023-02-27T13:35:16.017Z,78.76
2023-02-27T13:37:56.773Z,78.32
2023-02-27T13:40:31.227Z,78.98
2023-02-27T13:43:20.156Z,79.37
2023-02-27T13:45:50.697Z,79.40
2023-02-27T13:48:34.273Z,79.10
2023-02-27T13:51:02.734Z,78.48
2023-02-27T13:53:31.065Z,78.34
2023-02-27T13:56:28.147Z,78.50
2023-02-27T13:58:57.986Z,78.50
2023-02-27T14:01:28.877Z,78.44
2023-02-27T14:04:03.614Z,78.34
2023-02-27T14:06:31.976Z,78.07
2023-02-27T14:09:12.931Z,78.06
2023-02-27T14:11:57.075Z,78.37
2023-02-27T14:14:40.261Z,79.06
2023-02-27T14:17:12.136Z,79.41
2023-02-27T14:19:40.383Z,79.37
2023-02-27T14:22:11.616Z,79.66
2023-02-27T14:24:59.995Z,79.62
2023-02-27T14:27:43.727Z,79.86
2023-02-27T14:30:26.962Z,80.09
2023-02-27T14:32:57.384Z,80.51
2023-02-27T14:35:27.911Z,80.23
2023-02-27T14:37:56.447Z,80.34
2023-02-27T14:40:33.132Z,80.34
2023-02-27T14:43:15.171Z,80.18
2023-02-27T14:45:43.494Z,79.85
2023-02-27T14:48:19.773Z,80.37
2023-02-27T14:50:53.852Z,80.82
2023-02-27T14:53:25.441Z,81.14
2023-02-27T14:55:56.644Z,81.06
2023-02-27T14:58:26.338Z,81.07
2023-02-27T15:01:10.012Z,80.95
2023-02-27T15:03:42.221Z,80.97
2023-02-27T15:06:34.168Z,80.80
2023-02-27T15:09:03.140Z,81.60
2023-02-27T15:11:31.442Z,81.13
2023-02-27T15:14:03.009Z,81.17
2023-02-27T15:16:38.013Z,81.55
2023-02-27T15:19:21.134Z,81.87
2023-02-27T15:22:03.352Z,82.46
2023-02-27T15:24:49.178Z,82.26
2023-02-27T15:27:22.845Z,82.40
2023-02-27T15:29:55.026Z,82.60
2023-02-27T15:32:26.505Z,82.42
2023-02-27T15:34:57.413Z,82.66
2023-02-27T15:37:29.068Z,82.52
2023-02-27T15:39:58.630Z,83.52
2023-02-27T15:42:35.100Z,83.15
2023-02-27T15:45:06.410Z,83.43
2023-02-27T15:47:36.121Z,83.65
2023-02-27T15:50:16.734Z,83.97
2023-02-27T15:52:54.840Z,84.32
2023-02-27T15:55:30.912Z,84.16
2023-02-27T15:58:11.160Z,83.94
2023-02-27T16:00:39.424Z,83.88
2023-02-27T16:03:09.429Z,83.91
2023-02-27T16:05:41.702Z,85.49
2023-02-27T16:08:18.388Z,86.47
2023-02-27T16:10:47.650Z,85.55
2023-02-27T16:13:25.183Z,85.45
2023-02-27T16:16:04.367Z,85.83
2023-02-27T16:18:46.549Z,85.42
2023-02-27T16:21:24.078Z,85.68
2023-02-27T16:23:54.091Z,86.14
2023-02-27T16:26:32.118Z,86.13
2023-02-27T16:29:04.216Z,86.49
2023-02-27T16:31:41.101Z,87.33
2023-02-27T16:34:26.109Z,87.70
2023-02-27T16:37:03.558Z,86.90
2023-02-27T16:39:32.892Z,86.90
2023-02-27T16:42:02.353Z,86.90
2023-02-27T16:44:30.689Z,87.69
2023-02-27T16:46:59.090Z,87.49
2023-02-27T16:49:32.032Z,87.14
2023-02-27T16:52:03.477Z,87.11
2023-02-27T16:54:31.918Z,88.04
2023-02-27T16:57:00.148Z,87.72
2023-02-27T16:59:40.554Z,87.32
2023-02-27T17:02:13.429Z,87.54
2023-02-27T17:04:44.527Z,87.59
2023-02-27T17:07:18.155Z,87.13
2023-02-27T17:09:47.527Z,87.27
2023-02-27T17:12:15.827Z,87.69
2023-02-27T17:14:44.009Z,87.69
2023-02-27T17:17:12.303Z,87.40
2023-02-27T17:19:40.962Z,87.29
2023-02-27T17:22:09.531Z,87.17
2023-02-27T17:24:39.054Z,87.39
2023-02-27T17:27:07.949Z,87.48
2023-02-27T17:29:38.836Z,88.34
2023-02-27T17:32:07.129Z,88.14
2023-02-27T17:34:35.929Z,87.90
2023-02-27T17:37:04.559Z,87.94
2023-02-27T17:39:33.610Z,88.30
2023-02-27T17:42:01.826Z,87.82
2023-02-27T17:44:30.151Z,87.66
2023-02-27T17:46:58.382Z,87.81
2023-02-27T17:49:26.621Z,87.92
2023-02-27T17:51:54.947Z,87.48
2023-02-27T17:54:23.093Z,87.55
2023-02-27T17:56:51.425Z,87.54
2023-02-27T17:59:19.610Z,89.10
2023-02-27T18:01:47.908Z,89.81
2023-02-27T18:04:17.653Z,89.33
2023-02-27T18:06:45.880Z,89.18
2023-02-27T18:09:14.095Z,89.00
2023-02-27T18:11:42.752Z,90.02
2023-02-27T18:14:11.124Z,90.35
2023-02-27T18:16:39.420Z,89.85
2023-02-27T18:19:07.706Z,90.30
2023-02-27T18:21:36.046Z,90.33
2023-02-27T18:24:04.739Z,89.86
2023-02-27T18:26:33.525Z,89.61
2023-02-27T18:29:05.568Z,89.79
2023-02-27T18:31:37.170Z,90.45
2023-02-27T18:34:06.701Z,90.47
2023-02-27T18:36:35.415Z,90.26
2023-02-27T18:39:05.200Z,90.10
2023-02-27T18:41:33.987Z,90.17
2023-02-27T18:44:02.562Z,90.38
2023-02-27T18:46:31.307Z,90.17
2023-02-27T18:48:59.945Z,90.15
2023-02-27T18:51:28.334Z,90.90
2023-02-27T18:53:56.943Z,91.08
2023-02-27T18:56:26.745Z,90.97
2023-02-27T18:58:58.244Z,91.08
2023-02-27T19:01:30.365Z,91.07
2023-02-27T19:04:03.965Z,91.16
2023-02-27T19:06:42.241Z,90.59
2023-02-27T19:09:13.260Z,90.42
2023-02-27T19:11:42.433Z,90.22
2023-02-27T19:14:16.175Z,91.03
2023-02-27T19:16:46.280Z,91.39
2023-02-27T19:19:15.373Z,90.84
2023-02-27T19:21:44.598Z,90.61
2023-02-27T19:24:14.405Z,90.99
2023-02-27T19:26:42.665Z,90.98
2023-02-27T19:29:11.331Z,90.38
2023-02-27T19:31:39.769Z,90.18
2023-02-27T19:34:08.268Z,90.09
2023-02-27T19:36:36.827Z,90.38
2023-02-27T19:39:05.140Z,90.20
2023-02-27T19:41:33.752Z,90.23
2023-02-27T19:44:02.274Z,90.37
2023-02-27T19:46:33.894Z,90.72
2023-02-27T19:49:05.220Z,90.89
2023-02-27T19:51:33.524Z,91.22
2023-02-27T19:54:01.860Z,90.73
2023-02-27T19:56:31.193Z,90.57
2023-02-27T19:59:01.012Z,90.22
2023-02-27T20:01:32.712Z,90.12
2023-02-27T20:04:02.053Z,90.46
2023-02-27T20:06:33.369Z,89.85
2023-02-27T20:09:01.576Z,90.03
2023-02-27T20:11:31.372Z,90.21
2023-02-27T20:14:00.181Z,90.29
2023-02-27T20:16:30.776Z,90.65
2023-02-27T20:18:59.384Z,91.03
2023-02-27T20:21:29.002Z,91.19
2023-02-27T20:23:58.476Z,91.43
2023-02-27T20:26:31.795Z,91.29
2023-02-27T20:29:06.110Z,91.67
2023-02-27T20:31:36.203Z,91.29
2023-02-27T20:34:06.248Z,90.82
2023-02-27T20:36:35.748Z,91.63
2023-02-27T20:39:05.905Z,91.42
2023-02-27T20:41:37.116Z,91.13
2023-02-27T20:44:05.591Z,91.63
2023-02-27T20:46:34.502Z,91.46
2023-02-27T20:49:04.628Z,91.46
2023-02-27T20:51:38.493Z,92.10
2023-02-27T20:54:10.139Z,91.60
2023-02-27T20:56:41.479Z,90.82
2023-02-27T20:59:14.605Z,91.31
2023-02-27T21:01:47.322Z,91.29
2023-02-27T21:04:15.638Z,91.09
2023-02-27T21:06:46.337Z,91.25
2023-02-27T21:09:15.472Z,91.23
2023-02-27T21:11:43.729Z,91.53
2023-02-27T21:14:12.686Z,91.49
2023-02-27T21:16:41.009Z,91.53
2023-02-27T21:19:09.478Z,91.29
2023-02-27T21:21:38.003Z,91.62
2023-02-27T21:24:06.677Z,91.47
2023-02-27T21:26:38.340Z,91.87
2023-02-27T21:29:13.362Z,91.85
2023-02-27T21:31:45.202Z,91.31
2023-02-27T21:34:16.309Z,91.81
2023-02-27T21:36:45.660Z,92.19
2023-02-27T21:39:26.076Z,92.04
2023-02-27T21:41:55.427Z,92.57
2023-02-27T21:44:25.316Z,92.18
2023-02-27T21:46:54.646Z,92.39
2023-02-27T21:49:27.950Z,92.07
2023-02-27T21:51:56.308Z,91.87
2023-02-27T21:54:24.728Z,91.70
2023-02-27T21:56:53.027Z,91.99
2023-02-27T21:59:21.893Z,91.33
2023-02-27T22:01:50.856Z,91.78
2023-02-27T22:04:20.644Z,92.06
2023-02-27T22:06:50.480Z,92.05
2023-02-27T22:09:19.721Z,92.01
2023-02-27T22:11:48.703Z,91.68
2023-02-27T22:14:17.103Z,92.12
2023-02-27T22:16:45.419Z,92.12
2023-02-27T22:19:19.953Z,92.30
2023-02-27T22:21:48.543Z,91.91
2023-02-27T22:24:16.775Z,92.20
2023-02-27T22:26:45.886Z,92.27
2023-02-27T22:29:14.392Z,92.47
2023-02-27T22:31:43.693Z,92.28
2023-02-27T22:34:18.116Z,92.16
2023-02-27T22:36:52.790Z,92.01
2023-02-27T22:39:21.573Z,91.72
2023-02-27T22:41:50.102Z,91.53
2023-02-27T22:44:18.599Z,91.38
2023-02-27T22:46:49.279Z,91.43
2023-02-27T22:49:21.228Z,91.30
2023-02-27T22:51:51.701Z,91.07
2023-02-27T22:54:22.470Z,91.19
2023-02-27T22:56:53.209Z,91.65
2023-02-27T22:59:22.258Z,91.91
2023-02-27T23:01:52.580Z,91.86
2023-02-27T23:04:22.374Z,91.63
2023-02-27T23:06:52.805Z,92.31
2023-02-27T23:09:24.536Z,92.39
2023-02-27T23:11:54.314Z,91.44
2023-02-27T23:14:23.159Z,91.29
2023-02-27T23:16:51.488Z,91.79
2023-02-27T23:19:21.923Z,93.04
2023-02-27T23:21:50.173Z,92.54
2023-02-27T23:24:19.492Z,92.42
2023-02-27T23:26:49.855Z,92.96
2023-02-27T23:29:18.635Z,92.07
2023-02-27T23:31:47.150Z,92.05
2023-02-27T23:34:16.638Z,92.79
2023-02-27T23:36:44.804Z,93.20
2023-02-27T23:39:12.956Z,92.80
2023-02-27T23:41:41.140Z,93.07
2023-02-27T23:44:09.353Z,93.19
2023-02-27T23:46:38.193Z,93.01
2023-02-27T23:49:06.645Z,92.39
2023-02-27T23:51:35.264Z,93.13
2023-02-27T23:54:03.899Z,93.26
2023-02-27T23:56:32.165Z,93.54
2023-02-27T23:59:03.704Z,94.01
